Time;durP1;ratioP1;P1;durP2;ratioP2;P2;SDS_P1;SDS_P2;PMS_P1;PMS_P2;Temp;Humidity;BMP_temperature;BMP_pressure;BME280_temperature;BME280_humidity;BME280_pressure;Samples;Min_cycle;Max_cycle;Signal;HPM_P1;HPM_P2
2021/01/15 00:01:05;;;;;;;11.57;7.30;;;0.70;99.90;;;;;;5041288;28;20115;-80
2021/01/15 00:03:33;;;;;;;13.23;7.20;;;0.70;99.90;;;;;;5041661;28;20131;-80
2021/01/15 00:06:05;;;;;;;11.82;7.40;;;0.70;99.90;;;;;;5053490;28;20064;-81
2021/01/15 00:08:32;;;;;;;12.05;6.60;;;0.70;99.90;;;;;;5048548;28;20132;-81
2021/01/15 00:10:59;;;;;;;11.75;7.18;;;0.60;99.90;;;;;;5042896;28;20059;-80
2021/01/15 00:13:25;;;;;;;12.98;7.25;;;0.60;99.90;;;;;;5042096;28;20163;-81
2021/01/15 00:15:51;;;;;;;13.68;7.22;;;0.60;99.90;;;;;;5047303;28;20069;-82
2021/01/15 00:18:18;;;;;;;11.30;7.38;;;0.60;99.90;;;;;;5042290;28;20046;-82
2021/01/15 00:20:45;;;;;;;13.38;7.22;;;0.50;99.90;;;;;;5042003;28;20128;-78
2021/01/15 00:23:12;;;;;;;12.85;7.50;;;0.50;99.90;;;;;;5050311;28;20081;-80
2021/01/15 00:25:38;;;;;;;16.02;8.32;;;0.50;99.90;;;;;;5046218;28;20049;-80
2021/01/15 00:28:05;;;;;;;13.30;8.10;;;0.50;99.90;;;;;;5041468;28;20084;-79
2021/01/15 00:30:31;;;;;;;16.63;8.68;;;0.50;99.90;;;;;;5041893;28;20081;-80
2021/01/15 00:32:58;;;;;;;15.13;7.93;;;0.50;99.90;;;;;;5041147;28;20071;-80
2021/01/15 00:35:24;;;;;;;14.68;8.35;;;0.50;99.90;;;;;;5041235;28;20045;-80
2021/01/15 00:37:50;;;;;;;12.80;8.18;;;0.40;99.90;;;;;;5041493;28;20088;-80
2021/01/15 00:40:18;;;;;;;15.13;8.15;;;0.40;99.90;;;;;;5039898;28;20050;-80
2021/01/15 00:42:44;;;;;;;12.23;7.18;;;0.40;99.90;;;;;;5042044;28;20053;-80
2021/01/15 00:45:16;;;;;;;11.63;7.38;;;0.40;99.90;;;;;;5041664;28;20072;-80
2021/01/15 00:47:43;;;;;;;11.03;7.67;;;0.30;99.90;;;;;;5042035;28;20049;-80
2021/01/15 00:50:11;;;;;;;10.95;7.47;;;0.30;99.90;;;;;;5040605;28;20091;-80
2021/01/15 00:52:37;;;;;;;12.05;7.55;;;0.20;99.90;;;;;;5041142;28;20092;-80
2021/01/15 00:55:05;;;;;;;11.48;7.00;;;0.20;99.90;;;;;;5041528;28;20128;-81
2021/01/15 00:57:36;;;;;;;10.55;7.28;;;0.10;99.90;;;;;;5040949;28;20080;-79
2021/01/15 01:00:04;;;;;;;13.00;7.10;;;0.10;99.90;;;;;;5042095;28;20045;-79
2021/01/15 01:02:33;;;;;;;10.63;7.03;;;0.10;99.90;;;;;;5041998;28;20053;-80
2021/01/15 01:05:00;;;;;;;12.35;7.05;;;0.10;99.90;;;;;;5041698;28;20084;-80
2021/01/15 01:07:26;;;;;;;11.13;6.95;;;0.10;99.90;;;;;;5042211;28;20545;-81
2021/01/15 01:09:53;;;;;;;11.00;7.13;;;0.10;99.90;;;;;;5040386;28;20091;-81
2021/01/15 01:12:19;;;;;;;11.27;7.18;;;0.10;99.90;;;;;;5039802;28;20088;-80
2021/01/15 01:14:46;;;;;;;11.02;7.45;;;0.00;99.90;;;;;;5039781;28;20288;-80
2021/01/15 01:17:12;;;;;;;16.50;7.72;;;0.00;99.90;;;;;;5039655;28;20124;-80
2021/01/15 01:19:39;;;;;;;10.93;7.35;;;0.00;99.90;;;;;;5039251;28;20077;-80
2021/01/15 01:22:05;;;;;;;12.35;7.32;;;0.00;99.90;;;;;;5040341;28;20073;-81
2021/01/15 01:24:32;;;;;;;15.45;8.32;;;0.00;99.90;;;;;;5041232;28;20072;-81
2021/01/15 01:26:58;;;;;;;14.15;7.70;;;0.00;99.90;;;;;;5041813;28;20072;-81
2021/01/15 01:29:24;;;;;;;15.63;8.25;;;0.00;99.90;;;;;;5040366;28;20084;-81
2021/01/15 01:31:52;;;;;;;13.00;8.13;;;0.00;99.90;;;;;;5040906;28;20046;-80
2021/01/15 01:34:18;;;;;;;12.80;8.25;;;0.00;99.90;;;;;;5041333;28;20045;-80
2021/01/15 01:36:45;;;;;;;13.80;8.13;;;-0.10;99.90;;;;;;5041212;28;20076;-80
2021/01/15 01:39:11;;;;;;;13.20;8.07;;;-0.10;99.90;;;;;;5040998;28;20088;-80
2021/01/15 01:41:37;;;;;;;13.25;8.48;;;-0.10;99.90;;;;;;5040257;28;20536;-80
2021/01/15 01:44:04;;;;;;;12.00;7.63;;;-0.10;99.90;;;;;;5040578;28;20380;-81
2021/01/15 01:46:30;;;;;;;17.17;9.45;;;-0.10;99.90;;;;;;5038940;28;20164;-81
2021/01/15 01:48:58;;;;;;;17.65;8.32;;;-0.20;99.90;;;;;;5039221;28;20468;-80
2021/01/15 01:51:24;;;;;;;16.67;9.05;;;-0.10;99.90;;;;;;5038580;28;20137;-80
2021/01/15 01:53:51;;;;;;;15.35;8.88;;;-0.10;99.90;;;;;;5039030;28;20050;-80
2021/01/15 01:56:17;;;;;;;13.68;8.98;;;-0.10;99.90;;;;;;5038709;28;20045;-80
2021/01/15 01:58:44;;;;;;;18.30;9.00;;;0.00;99.90;;;;;;5038064;28;20141;-80
2021/01/15 02:01:10;;;;;;;16.17;8.85;;;0.00;99.90;;;;;;5037830;28;20057;-81
2021/01/15 02:03:36;;;;;;;15.27;9.20;;;0.00;99.90;;;;;;5038537;28;20145;-81
2021/01/15 02:06:04;;;;;;;12.90;8.27;;;0.00;99.90;;;;;;5040229;28;20129;-81
2021/01/15 02:08:31;;;;;;;16.17;8.93;;;0.10;99.90;;;;;;5039936;28;20426;-80
2021/01/15 02:11:05;;;;;;;14.25;8.38;;;0.10;99.90;;;;;;5040028;28;20509;-80
2021/01/15 02:13:41;;;;;;;14.48;9.25;;;0.10;99.90;;;;;;5038740;28;20073;-81
2021/01/15 02:16:12;;;;;;;14.82;9.02;;;0.10;99.90;;;;;;5039006;28;20068;-80
2021/01/15 02:18:45;;;;;;;13.85;8.18;;;0.20;99.90;;;;;;5040056;28;20080;-81
2021/01/15 02:22:02;;;;;;;12.57;8.15;;;0.20;99.90;;;;;;5039184;28;20045;-81
2021/01/15 02:24:59;;;;;;;14.23;8.48;;;0.30;99.90;;;;;;5039668;28;20110;-81
2021/01/15 02:27:55;;;;;;;17.88;9.60;;;0.30;99.90;;;;;;5047366;28;20056;-81
2021/01/15 02:30:38;;;;;;;15.15;8.35;;;0.30;99.90;;;;;;5045865;28;20073;-81
2021/01/15 02:33:13;;;;;;;12.50;8.07;;;0.40;99.90;;;;;;5044515;28;20080;-81
2021/01/15 02:35:49;;;;;;;14.60;8.38;;;0.40;99.90;;;;;;5043726;28;20347;-81
2021/01/15 02:38:47;;;;;;;14.10;8.25;;;0.50;99.90;;;;;;5044497;28;20081;-80
2021/01/15 02:41:22;;;;;;;14.32;8.48;;;0.50;99.90;;;;;;4981942;28;20078;-80
2021/01/15 02:43:50;;;;;;;13.73;8.32;;;0.60;99.90;;;;;;5043690;28;20048;-79
2021/01/15 02:46:24;;;;;;;13.52;8.48;;;0.60;99.90;;;;;;5055584;28;20050;-81
2021/01/15 02:48:53;;;;;;;11.45;8.00;;;0.70;99.90;;;;;;5044144;28;20099;-80
2021/01/15 02:51:19;;;;;;;13.20;8.32;;;0.80;99.90;;;;;;5043476;28;20089;-80
2021/01/15 02:53:46;;;;;;;13.40;8.30;;;0.80;99.90;;;;;;5042913;28;20100;-81
2021/01/15 02:56:14;;;;;;;13.27;7.68;;;0.90;99.90;;;;;;5043953;28;20459;-81
2021/01/15 02:58:41;;;;;;;13.00;8.10;;;0.90;99.90;;;;;;5043697;28;20556;-81
2021/01/15 03:01:07;;;;;;;15.93;8.25;;;0.90;99.90;;;;;;5042551;28;20080;-81
2021/01/15 03:03:42;;;;;;;12.70;8.07;;;0.90;99.90;;;;;;5043024;28;20073;-81
2021/01/15 03:06:13;;;;;;;13.52;8.45;;;0.90;99.90;;;;;;5043049;28;20076;-81
2021/01/15 03:08:41;;;;;;;13.05;8.80;;;1.00;99.90;;;;;;5042616;28;20092;-81
2021/01/15 03:11:09;;;;;;;14.40;9.23;;;1.00;99.90;;;;;;5042355;28;20049;-81
2021/01/15 03:13:37;;;;;;;14.73;8.20;;;1.00;99.90;;;;;;5042063;28;20081;-80
2021/01/15 03:16:05;;;;;;;14.70;8.90;;;0.90;99.90;;;;;;5042429;28;20096;-80
2021/01/15 03:18:32;;;;;;;11.98;8.20;;;1.00;99.90;;;;;;5043061;28;20525;-81
2021/01/15 03:21:01;;;;;;;13.52;8.68;;;1.00;99.90;;;;;;5041000;28;20072;-80
2021/01/15 03:23:28;;;;;;;17.05;8.73;;;0.90;99.90;;;;;;5041673;28;20053;-80
2021/01/15 03:25:55;;;;;;;15.85;8.55;;;0.90;99.90;;;;;;5041407;28;20077;-80
2021/01/15 03:28:22;;;;;;;11.55;7.50;;;0.90;99.90;;;;;;5041404;28;20077;-79
2021/01/15 03:30:48;;;;;;;13.95;8.10;;;1.00;99.90;;;;;;5040663;28;20156;-79
2021/01/15 03:35:45;;;;;;;12.25;8.25;;;1.00;99.90;;;;;;5076738;22;20056;-80
2021/01/15 03:38:12;;;;;;;14.45;8.73;;;1.00;99.90;;;;;;5057843;28;20191;-79
2021/01/15 03:40:42;;;;;;;13.38;9.05;;;1.00;99.90;;;;;;5062729;28;20492;-80
2021/01/15 03:43:13;;;;;;;15.68;9.93;;;1.00;99.90;;;;;;5065714;28;20065;-79
2021/01/15 03:45:40;;;;;;;16.50;10.00;;;1.00;99.90;;;;;;5064955;28;20087;-79
2021/01/15 03:48:08;;;;;;;19.80;10.60;;;1.00;99.90;;;;;;5066307;28;20081;-80
2021/01/15 03:50:34;;;;;;;18.85;10.38;;;1.10;99.90;;;;;;5065334;28;20080;-80
2021/01/15 03:53:01;;;;;;;20.42;10.85;;;1.10;99.90;;;;;;5058916;28;20048;-80
2021/01/15 03:55:27;;;;;;;16.33;10.50;;;1.10;99.90;;;;;;5057785;28;20080;-79
2021/01/15 03:57:55;;;;;;;18.52;10.52;;;1.20;99.90;;;;;;5058056;28;20057;-80
2021/01/15 04:00:22;;;;;;;18.98;10.50;;;1.20;99.90;;;;;;5055874;28;20091;-80
2021/01/15 04:02:48;;;;;;;20.55;12.00;;;1.20;99.90;;;;;;5056620;28;20076;-80
2021/01/15 04:05:15;;;;;;;23.42;12.55;;;1.20;99.90;;;;;;5058633;28;20071;-79
2021/01/15 04:07:41;;;;;;;19.75;11.98;;;1.30;99.90;;;;;;5059712;28;20091;-80
2021/01/15 04:10:09;;;;;;;22.95;11.70;;;1.20;99.90;;;;;;5059653;28;20087;-80
2021/01/15 04:12:36;;;;;;;19.45;11.80;;;1.20;99.90;;;;;;5059632;28;20064;-80
2021/01/15 04:15:04;;;;;;;21.50;12.68;;;1.30;99.90;;;;;;5059918;28;20084;-80
2021/01/15 04:17:31;;;;;;;19.75;12.00;;;1.30;99.90;;;;;;5060410;28;20088;-80
2021/01/15 04:19:57;;;;;;;23.35;12.82;;;1.30;99.90;;;;;;5060664;28;20065;-80
2021/01/15 04:22:24;;;;;;;24.40;12.10;;;1.30;99.90;;;;;;5060888;28;20052;-79
2021/01/15 04:24:50;;;;;;;22.67;12.70;;;1.30;99.90;;;;;;5054093;28;20080;-80
2021/01/15 04:27:17;;;;;;;21.00;11.95;;;1.30;99.90;;;;;;5052363;28;20091;-79
2021/01/15 04:29:43;;;;;;;19.10;11.93;;;1.40;99.90;;;;;;5060522;28;20076;-79
2021/01/15 04:32:10;;;;;;;18.23;11.70;;;1.30;99.90;;;;;;5058070;28;20080;-81
2021/01/15 04:34:37;;;;;;;21.77;12.32;;;1.30;99.90;;;;;;5060679;28;20072;-80
2021/01/15 04:37:03;;;;;;;22.13;13.20;;;1.30;99.90;;;;;;5060746;28;20123;-80
2021/01/15 04:39:29;;;;;;;19.50;11.90;;;1.30;99.90;;;;;;5044839;28;20053;-81
2021/01/15 04:41:57;;;;;;;20.08;11.68;;;1.40;99.90;;;;;;5042641;28;20521;-80
2021/01/15 04:44:24;;;;;;;21.42;12.48;;;1.40;99.90;;;;;;5051579;28;20049;-80
2021/01/15 04:46:56;;;;;;;21.42;12.20;;;1.40;99.90;;;;;;5058950;28;20091;-80
2021/01/15 04:49:27;;;;;;;21.30;11.52;;;1.50;99.90;;;;;;5060350;28;20049;-81
2021/01/15 04:51:57;;;;;;;15.82;10.98;;;1.40;99.90;;;;;;5065015;28;20144;-81
2021/01/15 04:54:35;;;;;;;23.48;13.32;;;1.40;99.90;;;;;;5062652;28;20101;-80
2021/01/15 04:57:05;;;;;;;22.38;12.50;;;1.40;99.90;;;;;;5067478;28;20070;-81
2021/01/15 04:59:38;;;;;;;24.02;12.18;;;1.40;99.90;;;;;;5066359;28;20053;-79
2021/01/15 05:02:09;;;;;;;21.45;12.52;;;1.40;99.90;;;;;;5065665;28;20071;-80
2021/01/15 05:04:37;;;;;;;20.30;11.88;;;1.50;99.90;;;;;;5066725;28;20048;-79
2021/01/15 05:07:04;;;;;;;20.70;12.38;;;1.50;99.90;;;;;;5064216;28;20096;-79
2021/01/15 05:09:38;;;;;;;19.67;12.18;;;1.50;99.90;;;;;;5067853;28;20079;-81
2021/01/15 05:12:08;;;;;;;23.20;11.88;;;1.60;99.90;;;;;;5048083;28;20441;-81
2021/01/15 05:14:38;;;;;;;20.17;12.15;;;1.50;99.90;;;;;;5040610;28;20045;-81
2021/01/15 05:17:07;;;;;;;22.50;12.05;;;1.50;99.90;;;;;;5056459;28;20338;-80
2021/01/15 05:19:39;;;;;;;20.58;12.25;;;1.50;99.90;;;;;;5055849;28;20075;-80
2021/01/15 05:22:06;;;;;;;18.92;11.55;;;1.60;99.90;;;;;;5042645;28;20076;-80
2021/01/15 05:24:33;;;;;;;19.38;12.10;;;1.70;99.90;;;;;;5034824;28;20061;-82
2021/01/15 05:27:38;;;;;;;20.52;11.73;;;1.70;99.90;;;;;;5037473;28;20080;-80
2021/01/15 05:30:15;;;;;;;18.00;11.32;;;1.60;99.90;;;;;;5046285;28;20049;-81
2021/01/15 05:32:41;;;;;;;18.55;10.82;;;1.60;99.90;;;;;;5057072;28;20055;-80
2021/01/15 05:35:09;;;;;;;18.27;11.88;;;1.60;99.90;;;;;;5058606;28;20049;-83
2021/01/15 05:37:36;;;;;;;19.02;12.23;;;1.60;99.90;;;;;;5045339;28;20124;-79
2021/01/15 05:40:03;;;;;;;19.15;11.75;;;1.70;99.90;;;;;;5038518;28;20111;-80
2021/01/15 05:42:30;;;;;;;18.48;11.43;;;1.70;99.90;;;;;;5057278;28;20502;-81
2021/01/15 05:45:12;;;;;;;21.15;11.40;;;1.70;99.90;;;;;;5057225;28;20108;-81
2021/01/15 05:47:43;;;;;;;18.15;11.45;;;1.70;99.90;;;;;;5057047;28;20072;-81
2021/01/15 05:50:12;;;;;;;17.65;11.52;;;1.80;99.90;;;;;;5058963;28;20045;-80
2021/01/15 05:52:52;;;;;;;18.35;12.18;;;1.80;99.90;;;;;;5058042;28;20048;-80
2021/01/15 05:55:20;;;;;;;22.73;12.65;;;1.70;99.90;;;;;;5058589;28;20049;-81
2021/01/15 05:57:49;;;;;;;19.35;11.82;;;1.60;99.90;;;;;;5058946;28;20477;-79
2021/01/15 06:00:34;;;;;;;23.60;13.48;;;1.60;99.90;;;;;;5057681;28;20063;-81
2021/01/15 06:03:06;;;;;;;19.80;12.63;;;1.60;99.90;;;;;;5058367;28;20060;-80
2021/01/15 06:05:34;;;;;;;17.10;10.85;;;1.60;99.90;;;;;;5060298;28;20072;-81
2021/01/15 06:08:01;;;;;;;21.70;13.02;;;1.60;99.90;;;;;;5063530;28;20048;-80
2021/01/15 06:10:28;;;;;;;25.33;13.77;;;1.60;99.90;;;;;;5063285;28;20057;-81
2021/01/15 06:12:55;;;;;;;19.77;13.20;;;1.70;99.90;;;;;;5062983;28;20406;-80
2021/01/15 06:15:21;;;;;;;23.95;13.88;;;1.60;99.90;;;;;;5064822;28;20077;-81
2021/01/15 06:17:51;;;;;;;24.23;14.02;;;1.70;99.90;;;;;;5062746;28;20088;-81
2021/01/15 06:20:21;;;;;;;25.85;14.70;;;1.60;99.90;;;;;;5065461;28;20048;-84
2021/01/15 06:22:51;;;;;;;26.48;14.35;;;1.60;99.90;;;;;;5064691;28;20045;-83
2021/01/15 06:25:23;;;;;;;21.48;14.05;;;1.70;99.90;;;;;;5063198;28;20049;-80
2021/01/15 06:27:55;;;;;;;25.85;14.05;;;1.70;99.90;;;;;;5064146;28;20044;-80
2021/01/15 06:30:23;;;;;;;24.70;13.77;;;1.70;99.90;;;;;;5061980;28;20056;-78
2021/01/15 06:32:50;;;;;;;25.35;15.82;;;1.70;99.90;;;;;;5060362;28;20144;-78
2021/01/15 06:35:28;;;;;;;27.77;16.67;;;1.70;99.90;;;;;;5061360;28;20463;-78
2021/01/15 06:38:00;;;;;;;29.23;16.02;;;1.80;99.90;;;;;;5052043;28;20136;-78
2021/01/15 06:40:35;;;;;;;28.15;16.48;;;1.70;99.90;;;;;;5048957;28;20084;-78
2021/01/15 06:43:04;;;;;;;27.13;16.35;;;1.80;99.90;;;;;;5047553;28;20497;-80
2021/01/15 06:45:38;;;;;;;32.85;18.20;;;1.70;99.90;;;;;;5052918;28;20041;-81
2021/01/15 06:48:10;;;;;;;34.70;20.00;;;1.80;99.90;;;;;;5049519;28;20071;-81
2021/01/15 06:50:38;;;;;;;33.55;18.42;;;1.80;99.90;;;;;;5050859;28;20076;-81
2021/01/15 06:53:15;;;;;;;28.80;18.27;;;1.80;99.90;;;;;;5054302;28;20065;-80
2021/01/15 06:55:44;;;;;;;38.05;20.52;;;1.80;99.90;;;;;;5051934;28;20071;-83
2021/01/15 06:58:21;;;;;;;36.88;20.65;;;1.80;99.90;;;;;;5053896;28;20417;-83
2021/01/15 07:01:16;;;;;;;37.45;21.25;;;1.80;99.90;;;;;;5051838;28;20076;-83
2021/01/15 07:04:25;;;;;;;34.03;20.10;;;1.80;99.90;;;;;;5053017;28;20057;-83
2021/01/15 07:07:13;;;;;;;32.92;19.30;;;1.80;99.90;;;;;;5061654;28;20112;-83
2021/01/15 07:09:42;;;;;;;37.88;21.23;;;1.80;99.90;;;;;;5052828;28;20064;-83
2021/01/15 07:12:13;;;;;;;37.15;21.02;;;1.90;99.90;;;;;;5069060;28;20048;-84
2021/01/15 07:14:44;;;;;;;35.15;21.35;;;1.80;99.90;;;;;;5068556;28;20696;-85
2021/01/15 07:17:15;;;;;;;40.28;21.58;;;1.80;99.90;;;;;;5066990;28;20044;-85
2021/01/15 07:19:43;;;;;;;40.35;23.50;;;1.80;99.90;;;;;;5081767;28;20053;-83
2021/01/15 07:22:12;;;;;;;36.40;22.15;;;1.80;99.90;;;;;;5079288;28;20131;-82
2021/01/15 07:24:41;;;;;;;38.28;23.00;;;1.80;99.90;;;;;;5077641;28;20049;-84
2021/01/15 07:27:10;;;;;;;40.88;23.15;;;1.80;99.90;;;;;;5085992;28;20048;-83
2021/01/15 07:29:43;;;;;;;42.90;23.90;;;1.80;99.90;;;;;;5076272;28;20052;-87
2021/01/15 07:32:19;;;;;;;41.78;23.55;;;1.90;99.90;;;;;;5066487;28;20049;-84
2021/01/15 07:34:51;;;;;;;44.88;24.52;;;1.80;99.90;;;;;;5068314;28;20049;-84
2021/01/15 07:37:19;;;;;;;44.88;25.35;;;1.90;99.90;;;;;;5068460;28;20055;-85
2021/01/15 07:40:10;;;;;;;48.55;25.02;;;1.90;99.90;;;;;;5069075;28;20052;-85
2021/01/15 07:42:55;;;;;;;46.40;25.23;;;1.90;99.90;;;;;;5065752;28;20501;-86
2021/01/15 07:45:46;;;;;;;47.53;26.58;;;1.80;99.90;;;;;;5064299;28;20107;-85
2021/01/15 07:48:13;;;;;;;42.80;23.80;;;1.90;99.90;;;;;;5050044;28;20056;-83
2021/01/15 07:50:43;;;;;;;48.47;25.55;;;1.90;99.90;;;;;;5063811;28;20060;-84
2021/01/15 07:53:21;;;;;;;48.80;26.65;;;1.90;99.90;;;;;;5063926;28;20119;-84
2021/01/15 07:55:50;;;;;;;48.97;25.92;;;2.00;99.90;;;;;;5064457;28;20059;-83
2021/01/15 07:58:18;;;;;;;43.75;25.45;;;1.90;99.90;;;;;;5064594;28;20045;-83
2021/01/15 08:00:47;;;;;;;45.75;25.88;;;1.90;99.90;;;;;;5063063;28;20068;-86
2021/01/15 08:03:14;;;;;;;49.15;25.25;;;2.00;99.90;;;;;;5065205;28;20053;-86
2021/01/15 08:05:42;;;;;;;47.35;26.60;;;1.90;99.90;;;;;;5064190;28;20056;-85
2021/01/15 08:08:13;;;;;;;44.03;25.33;;;1.90;99.90;;;;;;5064318;28;20045;-85
2021/01/15 08:10:45;;;;;;;50.58;27.35;;;2.00;99.90;;;;;;5065096;28;20049;-86
2021/01/15 08:13:23;;;;;;;47.08;28.02;;;2.00;99.90;;;;;;5064477;28;20432;-86
2021/01/15 08:15:51;;;;;;;51.78;28.50;;;2.00;99.90;;;;;;5063058;28;20053;-85
2021/01/15 08:18:18;;;;;;;49.65;27.58;;;2.00;99.90;;;;;;5062502;28;20048;-85
2021/01/15 08:20:49;;;;;;;48.28;26.10;;;2.00;99.90;;;;;;5064477;28;20080;-85
2021/01/15 08:23:21;;;;;;;51.20;27.25;;;2.00;99.90;;;;;;5063682;28;20048;-85
2021/01/15 08:25:48;;;;;;;48.33;27.08;;;2.10;99.90;;;;;;5064755;28;20053;-83
2021/01/15 08:28:15;;;;;;;50.10;26.38;;;2.10;99.90;;;;;;5063106;28;20044;-85
2021/01/15 08:31:00;;;;;;;46.00;25.52;;;2.10;99.90;;;;;;5065032;28;20501;-85
2021/01/15 08:33:28;;;;;;;47.35;26.75;;;2.20;99.90;;;;;;5065784;28;20049;-84
2021/01/15 08:35:56;;;;;;;47.53;26.73;;;2.20;99.90;;;;;;5064032;28;20053;-82
2021/01/15 08:38:33;;;;;;;48.65;27.08;;;2.20;99.90;;;;;;5063421;28;20052;-85
2021/01/15 08:41:01;;;;;;;47.55;26.48;;;2.20;99.90;;;;;;5064365;28;20049;-84
2021/01/15 08:43:30;;;;;;;50.03;26.88;;;2.20;99.90;;;;;;5064881;28;20053;-84
2021/01/15 08:46:00;;;;;;;44.72;24.50;;;2.20;99.90;;;;;;5064560;28;20666;-85
2021/01/15 08:48:31;;;;;;;48.95;26.98;;;2.20;99.90;;;;;;5066854;28;20049;-84
2021/01/15 08:51:08;;;;;;;46.63;25.75;;;2.10;99.90;;;;;;5067501;28;20048;-86
2021/01/15 08:53:43;;;;;;;48.17;26.75;;;2.10;99.90;;;;;;5070619;28;20045;-84
2021/01/15 08:56:13;;;;;;;48.60;27.63;;;2.00;99.90;;;;;;5067098;28;20160;-86
2021/01/15 08:58:51;;;;;;;49.83;27.75;;;2.00;99.90;;;;;;5064855;28;20052;-85
2021/01/15 09:01:27;;;;;;;49.17;25.70;;;2.10;99.90;;;;;;5065374;28;20049;-84
2021/01/15 09:03:57;;;;;;;45.38;25.23;;;2.10;99.90;;;;;;5063150;28;20059;-86
2021/01/15 09:06:24;;;;;;;52.75;26.55;;;2.10;99.90;;;;;;5063653;28;20049;-85
2021/01/15 09:08:54;;;;;;;45.10;24.50;;;2.10;99.90;;;;;;5063190;28;20497;-84
2021/01/15 09:11:30;;;;;;;49.00;26.17;;;2.10;99.90;;;;;;5063572;28;20552;-86
2021/01/15 09:13:57;;;;;;;48.20;24.70;;;2.10;99.90;;;;;;5063295;28;20120;-85
2021/01/15 09:16:26;;;;;;;45.60;24.77;;;2.10;99.90;;;;;;5062863;28;20048;-84
2021/01/15 09:18:55;;;;;;;41.03;22.98;;;2.10;99.90;;;;;;5063467;28;20053;-85
2021/01/15 09:21:22;;;;;;;44.78;24.88;;;2.10;99.90;;;;;;5063389;28;20049;-87
2021/01/15 09:23:49;;;;;;;43.17;23.95;;;2.10;99.90;;;;;;5064502;28;20049;-87
2021/01/15 09:26:19;;;;;;;46.33;25.70;;;2.10;99.90;;;;;;5062672;28;20068;-85
2021/01/15 09:28:46;;;;;;;46.58;24.92;;;2.10;99.90;;;;;;5061173;28;20056;-84
2021/01/15 09:31:12;;;;;;;48.60;27.15;;;2.30;99.90;;;;;;5060265;28;20076;-84
2021/01/15 09:36:18;;;;;;;43.92;24.45;;;2.40;99.90;;;;;;5058345;22;20136;-80
2021/01/15 09:38:45;;;;;;;42.72;23.33;;;2.50;99.90;;;;;;5038712;28;20049;-79
2021/01/15 09:41:11;;;;;;;42.17;23.63;;;2.30;99.90;;;;;;5037029;28;20045;-80
2021/01/15 09:43:38;;;;;;;46.15;23.85;;;2.30;99.90;;;;;;5037743;28;20056;-79
2021/01/15 09:46:04;;;;;;;44.03;23.77;;;2.20;99.90;;;;;;5036334;28;20133;-80
2021/01/15 09:48:30;;;;;;;42.83;23.27;;;2.20;99.90;;;;;;5041766;28;20049;-80
2021/01/15 09:50:57;;;;;;;44.90;24.58;;;2.10;99.90;;;;;;5040612;28;20081;-80
2021/01/15 09:53:24;;;;;;;44.65;23.02;;;2.10;99.90;;;;;;5036591;28;20076;-80
2021/01/15 09:55:50;;;;;;;41.70;22.70;;;2.10;99.90;;;;;;5037389;28;20485;-81
2021/01/15 09:58:18;;;;;;;40.15;22.52;;;2.20;99.90;;;;;;5038052;28;20505;-80
2021/01/15 10:00:45;;;;;;;40.22;23.23;;;2.30;99.90;;;;;;5037860;28;20132;-80
2021/01/15 10:03:11;;;;;;;41.17;22.75;;;2.50;99.90;;;;;;5040643;28;20085;-83
2021/01/15 10:05:40;;;;;;;44.47;24.40;;;2.60;99.90;;;;;;5037680;28;20053;-81
2021/01/15 10:08:07;;;;;;;42.05;22.10;;;2.60;99.90;;;;;;5038268;28;20073;-80
2021/01/15 10:10:34;;;;;;;43.75;22.92;;;2.70;99.90;;;;;;5038219;28;20069;-80
2021/01/15 10:13:01;;;;;;;39.53;21.83;;;2.70;99.90;;;;;;5038054;28;20105;-81
2021/01/15 10:15:27;;;;;;;36.97;21.05;;;2.70;99.90;;;;;;5037277;28;20136;-80
2021/01/15 10:17:54;;;;;;;35.72;19.55;;;2.90;99.90;;;;;;5036677;28;20080;-80
2021/01/15 10:20:25;;;;;;;37.33;21.25;;;2.90;99.90;;;;;;5036586;28;20080;-79
2021/01/15 10:22:52;;;;;;;39.70;22.25;;;2.90;99.90;;;;;;5036369;28;20057;-80
2021/01/15 10:25:18;;;;;;;40.60;22.30;;;3.00;99.90;;;;;;5037336;28;20052;-80
2021/01/15 10:27:46;;;;;;;39.33;22.75;;;3.00;99.90;;;;;;5035907;28;20045;-81
2021/01/15 10:30:13;;;;;;;42.70;23.23;;;2.90;99.90;;;;;;5036925;28;20135;-80
2021/01/15 10:32:46;;;;;;;41.22;22.92;;;2.90;99.90;;;;;;5038834;28;20157;-79
2021/01/15 10:35:14;;;;;;;43.25;23.77;;;3.00;99.90;;;;;;5040903;28;20080;-80
2021/01/15 10:37:41;;;;;;;45.13;23.52;;;3.00;99.90;;;;;;5040273;28;20099;-79
2021/01/15 10:40:08;;;;;;;39.40;21.67;;;2.90;99.90;;;;;;5037008;28;20057;-78
2021/01/15 10:42:38;;;;;;;37.65;19.23;;;2.70;99.90;;;;;;5037977;28;20105;-79
2021/01/15 10:45:07;;;;;;;37.33;20.17;;;2.60;99.90;;;;;;5039818;28;20411;-79
2021/01/15 10:47:33;;;;;;;39.92;20.58;;;2.50;99.90;;;;;;5037124;28;20045;-79
2021/01/15 10:50:00;;;;;;;38.63;20.85;;;2.50;99.90;;;;;;5038746;28;20135;-79
2021/01/15 10:52:26;;;;;;;41.13;20.35;;;2.50;99.90;;;;;;5042158;28;20097;-82
2021/01/15 10:54:52;;;;;;;45.13;24.00;;;2.60;99.90;;;;;;5046130;28;20050;-79
2021/01/15 10:57:19;;;;;;;43.67;23.83;;;2.60;99.90;;;;;;5044050;28;20133;-80
2021/01/15 10:59:48;;;;;;;50.30;23.40;;;2.60;99.90;;;;;;5044077;28;20092;-80
2021/01/15 11:02:15;;;;;;;43.45;22.80;;;2.60;99.90;;;;;;5043016;28;20107;-80
2021/01/15 11:04:41;;;;;;;44.13;24.15;;;2.70;99.90;;;;;;5043644;28;20076;-79
2021/01/15 11:07:08;;;;;;;40.67;23.27;;;2.80;99.90;;;;;;5044103;28;20046;-80
2021/01/15 11:09:36;;;;;;;40.83;23.25;;;2.80;99.90;;;;;;5044979;28;20049;-80
2021/01/15 11:12:03;;;;;;;46.35;24.10;;;2.90;99.90;;;;;;5049165;28;20091;-81
2021/01/15 11:14:30;;;;;;;39.83;22.40;;;2.90;99.90;;;;;;5054243;28;20080;-81
2021/01/15 11:16:57;;;;;;;44.05;23.48;;;2.80;99.90;;;;;;5053802;28;20046;-81
2021/01/15 11:19:24;;;;;;;40.63;23.70;;;2.80;99.90;;;;;;5054055;28;20050;-79
2021/01/15 11:21:54;;;;;;;39.70;22.73;;;2.80;99.90;;;;;;5044475;28;20079;-78
2021/01/15 11:24:20;;;;;;;43.30;23.90;;;2.90;99.90;;;;;;5043009;28;20053;-78
2021/01/15 11:26:47;;;;;;;40.42;23.77;;;3.00;99.90;;;;;;5044470;28;20054;-79
2021/01/15 11:29:14;;;;;;;38.88;23.33;;;3.00;99.90;;;;;;5043196;28;20053;-79
2021/01/15 11:31:41;;;;;;;42.60;23.25;;;3.00;99.90;;;;;;5042879;28;20049;-81
2021/01/15 11:34:13;;;;;;;40.80;23.23;;;3.10;99.90;;;;;;5044702;28;20092;-81
2021/01/15 11:36:40;;;;;;;43.08;24.33;;;3.10;99.90;;;;;;5046532;28;20048;-78
2021/01/15 11:39:09;;;;;;;41.55;22.83;;;3.10;99.90;;;;;;5041793;28;20050;-80
2021/01/15 11:41:35;;;;;;;40.45;22.98;;;3.30;99.90;;;;;;5043512;28;20137;-80
2021/01/15 11:44:02;;;;;;;42.08;23.10;;;3.40;99.90;;;;;;5044016;28;20053;-79
2021/01/15 11:46:28;;;;;;;40.97;22.65;;;3.50;99.90;;;;;;5045251;28;20068;-79
2021/01/15 11:48:54;;;;;;;40.55;22.63;;;3.70;99.90;;;;;;5045674;28;20077;-79
2021/01/15 11:51:21;;;;;;;40.35;23.77;;;3.70;99.90;;;;;;5046295;28;20084;-80
2021/01/15 11:53:48;;;;;;;37.53;22.70;;;3.70;99.90;;;;;;5051174;28;20049;-81
2021/01/15 11:56:14;;;;;;;40.55;21.35;;;3.80;99.90;;;;;;5048079;28;20049;-80
2021/01/15 11:58:41;;;;;;;38.38;22.55;;;3.80;99.90;;;;;;5045498;28;20053;-78
2021/01/15 12:01:07;;;;;;;34.90;21.25;;;3.80;99.90;;;;;;5043993;28;20513;-77
2021/01/15 12:03:35;;;;;;;38.17;22.52;;;3.90;99.90;;;;;;5043345;28;20077;-81
2021/01/15 12:06:05;;;;;;;35.65;21.83;;;3.90;99.90;;;;;;5042217;28;20132;-78
2021/01/15 12:08:32;;;;;;;32.92;20.33;;;3.90;99.90;;;;;;5044320;28;20506;-80
2021/01/15 12:11:04;;;;;;;31.05;19.35;;;3.90;99.90;;;;;;5049625;28;20068;-80
2021/01/15 12:13:31;;;;;;;35.20;20.30;;;4.10;99.90;;;;;;5046933;28;20073;-82
2021/01/15 12:15:58;;;;;;;30.63;18.23;;;4.00;99.90;;;;;;5047053;28;20056;-81
2021/01/15 12:18:24;;;;;;;32.65;18.23;;;4.00;99.90;;;;;;5044446;28;20057;-81
2021/01/15 12:20:51;;;;;;;29.17;17.55;;;4.10;99.90;;;;;;5047980;28;20065;-81
2021/01/15 12:23:19;;;;;;;30.48;17.77;;;4.00;99.90;;;;;;5045397;28;20053;-80
2021/01/15 12:25:46;;;;;;;31.85;19.67;;;4.00;99.90;;;;;;5044356;28;20037;-79
2021/01/15 12:28:16;;;;;;;31.60;18.45;;;4.10;99.90;;;;;;5044728;28;20065;-81
2021/01/15 12:30:45;;;;;;;30.33;17.85;;;4.20;99.90;;;;;;5047185;28;20080;-81
2021/01/15 12:33:14;;;;;;;27.83;16.70;;;4.10;99.90;;;;;;5046942;28;20045;-80
2021/01/15 12:35:41;;;;;;;29.35;18.65;;;4.10;99.90;;;;;;5054916;28;20102;-81
2021/01/15 12:38:08;;;;;;;29.05;17.50;;;4.20;99.90;;;;;;5056688;28;20033;-83
2021/01/15 12:40:35;;;;;;;27.98;17.00;;;4.20;99.90;;;;;;5056979;28;20049;-82
2021/01/15 12:43:05;;;;;;;30.30;18.05;;;4.20;99.90;;;;;;5056992;28;20042;-81
2021/01/15 12:45:35;;;;;;;27.13;16.63;;;4.30;99.90;;;;;;5056562;28;20045;-84
2021/01/15 12:48:01;;;;;;;25.90;15.75;;;4.40;99.90;;;;;;5056539;28;20037;-80
2021/01/15 12:50:28;;;;;;;25.73;15.50;;;4.50;99.90;;;;;;5056515;28;20033;-78
2021/01/15 12:52:55;;;;;;;24.65;15.25;;;4.40;99.90;;;;;;5056430;28;20025;-83
2021/01/15 12:55:22;;;;;;;22.88;14.35;;;4.40;99.90;;;;;;5056254;28;20056;-80
2021/01/15 12:57:49;;;;;;;21.23;12.95;;;4.40;99.90;;;;;;5056399;28;20593;-82